Terminal Aerodrome Forecast
Issued by NWS

Home | Current Version | Previous Version | Text Only | Print | Product List | Glossary On
Versions: 1 2 3 4 5 6 7 8 9 10 11 12 13 14 15 16 17 18 19 20 21 22 23 24 25 26 27 28 29 30 31 32 33 34 35 36 37 38 39 40 41 42 43 44 45 46
000
FTUS42 KRAH 030559 CCA
TAFRWI
TAF COR
KRWI 030559Z 0306/0406 VRB02KT 6SM BR SCT010 BKN020 OVC060
     FM030900 VRB03KT 6SM BR BKN012 OVC060
     FM031400 16005KT P6SM VCSH SCT020 BKN035
      TEMPO 0314/0316 BKN025
     FM031800 20006KT P6SM SCT035 PROB30 0319/0323 VRB15G30KT 4SM
      -TSRA BKN025CB OVC045=

USA.gov is the U.S. government's official web portal to all federal, state and local government web resources and services.